createdAt,value
2019-03-29T00:00:56.003Z,8.00
2019-03-29T00:03:24.486Z,8.00
2019-03-29T00:05:52.948Z,8.00
2019-03-29T00:08:21.770Z,8.00
2019-03-29T00:10:50.223Z,8.00
2019-03-29T00:13:19.049Z,8.00
2019-03-29T00:15:47.512Z,8.30
2019-03-29T00:18:15.987Z,8.30
2019-03-29T00:20:44.438Z,8.20
2019-03-29T00:23:13.282Z,8.10
2019-03-29T00:25:41.770Z,8.00
2019-03-29T00:28:11.078Z,8.00
2019-03-29T00:30:39.811Z,8.20
2019-03-29T00:33:08.283Z,8.40
2019-03-29T00:35:37.055Z,8.40
2019-03-29T00:38:05.532Z,8.30
2019-03-29T00:40:34.063Z,8.30
2019-03-29T00:43:02.819Z,8.10
2019-03-29T00:45:31.612Z,7.90
2019-03-29T00:48:00.162Z,7.80
2019-03-29T00:50:28.616Z,7.80
2019-03-29T00:52:57.093Z,7.90
2019-03-29T00:55:25.867Z,8.20
2019-03-29T00:57:54.419Z,8.20
2019-03-29T01:00:23.239Z,8.10
2019-03-29T01:02:51.736Z,7.90
2019-03-29T01:05:20.239Z,7.90
2019-03-29T01:07:49.452Z,8.20
2019-03-29T01:10:17.907Z,8.10
2019-03-29T01:12:46.699Z,7.90
2019-03-29T01:15:15.592Z,7.80
2019-03-29T01:17:44.063Z,7.80
2019-03-29T01:20:13.059Z,7.90
2019-03-29T01:22:41.540Z,7.90
2019-03-29T01:25:10.136Z,8.00
2019-03-29T01:27:38.943Z,7.90
2019-03-29T01:30:08.140Z,7.90
2019-03-29T01:32:36.941Z,7.80
2019-03-29T01:35:07.054Z,7.90
2019-03-29T01:37:35.527Z,8.00
2019-03-29T01:40:05.183Z,8.10
2019-03-29T01:42:33.668Z,8.10
2019-03-29T01:45:02.542Z,8.20
2019-03-29T01:47:31.339Z,8.20
2019-03-29T01:49:59.824Z,8.30
2019-03-29T01:52:30.229Z,8.40
2019-03-29T01:54:58.492Z,8.40
2019-03-29T01:57:27.427Z,8.30
2019-03-29T01:59:56.219Z,8.30
2019-03-29T02:02:25.119Z,8.20
2019-03-29T02:04:53.907Z,8.30
2019-03-29T02:07:22.363Z,8.40
2019-03-29T02:09:50.839Z,8.30
2019-03-29T02:12:19.556Z,8.10
2019-03-29T02:14:48.027Z,7.90
2019-03-29T02:17:16.853Z,7.90
2019-03-29T02:19:45.326Z,8.00
2019-03-29T02:22:13.783Z,8.20
2019-03-29T02:24:42.256Z,8.20
2019-03-29T02:27:10.996Z,8.10
2019-03-29T02:29:39.475Z,8.00
2019-03-29T02:32:08.289Z,7.80
2019-03-29T02:34:36.840Z,7.90
2019-03-29T02:37:05.304Z,8.10
2019-03-29T02:39:34.148Z,8.20
2019-03-29T02:42:02.676Z,8.20
2019-03-29T02:44:31.523Z,7.90
2019-03-29T02:47:00.315Z,8.00
2019-03-29T02:49:28.796Z,8.10
2019-03-29T02:51:57.428Z,8.20
2019-03-29T02:54:26.183Z,7.90
2019-03-29T02:56:54.648Z,7.80
2019-03-29T02:59:23.201Z,8.10
2019-03-29T03:01:51.953Z,8.20
2019-03-29T03:04:20.504Z,8.30
2019-03-29T03:06:49.336Z,8.30
2019-03-29T03:09:17.878Z,8.10
2019-03-29T03:11:46.608Z,7.90
2019-03-29T03:14:15.092Z,7.90
2019-03-29T03:16:43.562Z,8.00
2019-03-29T03:19:12.108Z,7.90
2019-03-29T03:21:40.559Z,7.80
2019-03-29T03:24:09.372Z,7.80
2019-03-29T03:26:38.141Z,7.90
2019-03-29T03:29:07.037Z,7.80
2019-03-29T03:31:35.742Z,7.90
2019-03-29T03:34:04.638Z,8.00
2019-03-29T03:36:33.177Z,8.10
2019-03-29T03:39:02.001Z,8.00
2019-03-29T03:41:30.888Z,8.00
2019-03-29T03:43:59.682Z,7.80
2019-03-29T03:46:28.470Z,7.70
2019-03-29T03:48:57.276Z,7.60
2019-03-29T03:51:26.464Z,7.70
2019-03-29T03:53:55.067Z,8.00
2019-03-29T03:56:23.611Z,8.00
2019-03-29T03:58:52.346Z,8.00
2019-03-29T04:01:20.908Z,8.00
2019-03-29T04:03:49.729Z,8.10
2019-03-29T04:06:18.279Z,8.20
2019-03-29T04:08:46.756Z,8.10
2019-03-29T04:11:15.596Z,7.80
2019-03-29T04:13:44.203Z,7.60
2019-03-29T04:16:13.072Z,7.60
2019-03-29T04:18:41.526Z,7.50
2019-03-29T04:21:10.076Z,7.50
2019-03-29T04:23:38.684Z,7.60
2019-03-29T04:26:07.529Z,7.60
2019-03-29T04:28:35.987Z,7.50
2019-03-29T04:31:04.467Z,7.40
2019-03-29T04:33:33.301Z,7.40
2019-03-29T04:36:02.197Z,7.50
2019-03-29T04:38:31.089Z,7.40
2019-03-29T04:40:59.639Z,7.40
2019-03-29T04:43:28.091Z,7.30
2019-03-29T04:45:56.746Z,7.40
2019-03-29T04:48:25.276Z,7.60
2019-03-29T04:50:53.819Z,7.70
2019-03-29T04:53:22.279Z,7.60
2019-03-29T04:55:50.755Z,7.50
2019-03-29T04:58:19.215Z,7.50
2019-03-29T05:00:48.069Z,7.40
2019-03-29T05:03:16.531Z,7.40
2019-03-29T05:05:45.007Z,7.50
2019-03-29T05:08:13.463Z,7.90
2019-03-29T05:10:41.939Z,8.00
2019-03-29T05:13:10.699Z,8.10
2019-03-29T05:15:39.180Z,8.20
2019-03-29T05:18:07.636Z,8.20
2019-03-29T05:20:36.470Z,8.00
2019-03-29T05:23:05.264Z,7.80
2019-03-29T05:25:34.060Z,7.80
2019-03-29T05:28:02.948Z,7.70
2019-03-29T05:30:31.743Z,7.60
2019-03-29T05:33:00.279Z,7.50
2019-03-29T05:35:28.754Z,7.60
2019-03-29T05:37:57.243Z,7.60
2019-03-29T05:40:34.794Z,7.60
2019-03-29T05:42:56.192Z,7.60
2019-03-29T05:45:25.007Z,7.50
2019-03-29T05:47:53.475Z,7.60
2019-03-29T05:50:21.935Z,7.70
2019-03-29T05:52:50.770Z,7.70
2019-03-29T05:55:32.030Z,7.70
2019-03-29T05:57:50.095Z,7.70
2019-03-29T06:00:19.302Z,7.90
2019-03-29T06:02:47.852Z,8.00
2019-03-29T06:05:16.579Z,8.10
2019-03-29T06:07:45.057Z,8.30
2019-03-29T06:10:13.863Z,8.80
2019-03-29T06:12:42.355Z,9.00
2019-03-29T06:15:10.879Z,9.10
2019-03-29T06:17:48.436Z,9.00
2019-03-29T06:20:10.238Z,8.80
2019-03-29T06:22:38.713Z,8.30
2019-03-29T06:25:08.249Z,8.40
2019-03-29T06:27:37.148Z,8.60
2019-03-29T06:30:09.025Z,8.40
2019-03-29T06:32:37.500Z,8.50
2019-03-29T06:35:07.591Z,9.30
2019-03-29T06:37:37.436Z,9.70
2019-03-29T06:40:08.967Z,9.10
2019-03-29T06:42:37.439Z,8.70
2019-03-29T06:45:07.544Z,8.40
2019-03-29T06:47:36.300Z,8.50
2019-03-29T06:50:07.129Z,8.80
2019-03-29T06:52:35.925Z,9.30
2019-03-29T06:55:05.328Z,9.50
2019-03-29T06:57:33.803Z,9.10
2019-03-29T07:00:02.612Z,9.80
2019-03-29T07:02:31.426Z,10.20
2019-03-29T07:04:59.954Z,10.00
2019-03-29T07:07:28.436Z,9.40
2019-03-29T07:09:56.891Z,10.10
2019-03-29T07:12:25.657Z,10.60
2019-03-29T07:14:54.186Z,10.60
2019-03-29T07:17:22.664Z,10.70
2019-03-29T07:19:51.416Z,9.90
2019-03-29T07:22:19.894Z,9.70
2019-03-29T07:24:48.599Z,9.70
2019-03-29T07:27:17.082Z,10.20
2019-03-29T07:29:45.543Z,10.40
2019-03-29T07:32:14.367Z,10.60
2019-03-29T07:34:43.255Z,10.70
2019-03-29T07:37:12.147Z,9.90
2019-03-29T07:39:40.950Z,10.00
2019-03-29T07:42:09.512Z,10.40
2019-03-29T07:44:38.324Z,10.50
2019-03-29T07:47:06.800Z,11.00
2019-03-29T07:49:35.601Z,10.80
2019-03-29T07:52:04.402Z,10.10
2019-03-29T07:54:33.282Z,10.10
2019-03-29T07:57:02.095Z,10.10
2019-03-29T07:59:30.611Z,10.30
2019-03-29T08:01:59.360Z,11.10
2019-03-29T08:04:27.831Z,10.90
2019-03-29T08:06:56.647Z,11.00
2019-03-29T08:09:26.304Z,10.60
2019-03-29T08:11:56.073Z,10.90
2019-03-29T08:14:24.860Z,10.80
2019-03-29T08:16:53.314Z,10.50
2019-03-29T08:19:21.795Z,10.10
2019-03-29T08:21:50.319Z,9.90
2019-03-29T08:24:18.788Z,10.10
2019-03-29T08:26:47.243Z,10.40
2019-03-29T08:29:16.090Z,10.40
2019-03-29T08:31:44.615Z,10.60
2019-03-29T08:34:13.468Z,11.40
2019-03-29T08:36:41.918Z,12.00
2019-03-29T08:39:10.482Z,12.00
2019-03-29T08:41:39.435Z,12.10
2019-03-29T08:44:11.680Z,10.80
2019-03-29T08:46:38.970Z,11.00
2019-03-29T08:49:07.512Z,11.00
2019-03-29T08:51:35.971Z,11.70
2019-03-29T08:54:04.779Z,11.30
2019-03-29T08:56:33.239Z,12.20
2019-03-29T08:59:05.287Z,12.00
2019-03-29T09:01:34.180Z,12.50
2019-03-29T09:04:05.697Z,12.10
2019-03-29T09:06:33.904Z,12.30
2019-03-29T09:09:03.118Z,12.40
2019-03-29T09:11:31.580Z,12.10
2019-03-29T09:14:00.059Z,12.70
2019-03-29T09:16:28.521Z,13.00
2019-03-29T09:18:56.999Z,13.00
2019-03-29T09:21:25.848Z,12.30
2019-03-29T09:23:54.750Z,12.80
2019-03-29T09:26:23.644Z,12.80
2019-03-29T09:28:52.539Z,12.80
2019-03-29T09:31:20.997Z,13.70
2019-03-29T09:33:49.468Z,14.50
2019-03-29T09:36:17.928Z,13.20
2019-03-29T09:38:46.679Z,13.30
2019-03-29T09:41:15.307Z,13.10
2019-03-29T09:43:43.787Z,13.20
2019-03-29T09:46:12.551Z,13.10
2019-03-29T09:48:41.351Z,12.80
2019-03-29T09:51:09.877Z,13.00
2019-03-29T09:53:41.179Z,12.90
2019-03-29T09:56:09.161Z,12.80
2019-03-29T09:58:37.635Z,12.80
2019-03-29T10:01:06.435Z,12.70
2019-03-29T10:03:34.991Z,13.00
2019-03-29T10:06:03.701Z,13.30
2019-03-29T10:08:32.180Z,12.90
2019-03-29T10:11:00.631Z,13.20
2019-03-29T10:13:29.375Z,13.70
2019-03-29T10:15:57.867Z,13.70
2019-03-29T10:18:26.342Z,13.80
2019-03-29T10:20:55.142Z,13.40
2019-03-29T10:23:24.051Z,13.80
2019-03-29T10:25:53.048Z,13.60
2019-03-29T10:28:21.827Z,13.50
2019-03-29T10:30:50.303Z,13.50
2019-03-29T10:33:19.099Z,13.10
2019-03-29T10:35:52.682Z,13.60
2019-03-29T10:38:18.669Z,13.60
2019-03-29T10:40:47.347Z,13.60
2019-03-29T10:43:15.806Z,13.10
2019-03-29T10:45:44.712Z,13.40
2019-03-29T10:48:13.247Z,13.60
2019-03-29T10:50:41.722Z,12.90
2019-03-29T10:53:10.471Z,13.10
2019-03-29T10:55:38.948Z,13.90
2019-03-29T10:58:09.749Z,13.90
2019-03-29T11:00:39.615Z,14.00
2019-03-29T11:03:09.023Z,13.70
2019-03-29T11:05:37.871Z,14.60
2019-03-29T11:08:06.717Z,15.40
2019-03-29T11:10:37.510Z,15.70
2019-03-29T11:13:13.154Z,15.80
2019-03-29T11:15:36.307Z,15.20
2019-03-29T11:18:05.607Z,14.80
2019-03-29T11:20:34.362Z,14.80
2019-03-29T11:23:03.159Z,15.60
2019-03-29T11:25:31.947Z,16.00
2019-03-29T11:28:00.735Z,16.10
2019-03-29T11:30:41.507Z,16.00
2019-03-29T11:32:59.399Z,16.60
2019-03-29T11:35:27.943Z,17.00
2019-03-29T11:37:56.742Z,18.40
2019-03-29T11:40:25.294Z,19.40
2019-03-29T11:42:53.751Z,18.60
2019-03-29T11:45:22.319Z,18.70
2019-03-29T11:47:51.079Z,18.30
2019-03-29T11:50:19.875Z,17.20
2019-03-29T11:52:48.360Z,16.80
2019-03-29T11:55:17.256Z,16.30
2019-03-29T11:57:45.715Z,15.80
2019-03-29T12:00:15.791Z,16.30
2019-03-29T12:02:44.253Z,18.40
2019-03-29T12:05:13.148Z,18.10
2019-03-29T12:07:41.940Z,18.10
2019-03-29T12:10:10.493Z,19.20
2019-03-29T12:12:39.216Z,18.30
2019-03-29T12:15:09.035Z,17.20
2019-03-29T12:17:37.919Z,18.00
2019-03-29T12:20:07.596Z,18.00
2019-03-29T12:22:36.321Z,18.50
2019-03-29T12:25:07.371Z,16.20
2019-03-29T12:27:35.827Z,17.50
2019-03-29T12:30:07.220Z,16.00
2019-03-29T12:32:36.109Z,16.10
2019-03-29T12:35:09.763Z,17.30
2019-03-29T12:37:37.620Z,17.20
2019-03-29T12:40:07.432Z,16.90
2019-03-29T12:42:35.962Z,17.70
2019-03-29T12:45:05.861Z,16.80
2019-03-29T12:47:34.699Z,15.50
2019-03-29T12:50:04.209Z,15.50
2019-03-29T12:52:32.687Z,17.40
2019-03-29T12:55:01.492Z,19.50
2019-03-29T12:57:30.384Z,20.20
2019-03-29T12:59:59.176Z,19.60
2019-03-29T13:02:27.655Z,20.00
2019-03-29T13:04:56.111Z,18.80
2019-03-29T13:07:24.592Z,18.80
2019-03-29T13:09:53.050Z,19.50
2019-03-29T13:12:21.808Z,20.00
2019-03-29T13:14:50.613Z,17.50
2019-03-29T13:17:19.499Z,17.40
2019-03-29T13:19:48.027Z,15.40
2019-03-29T13:22:16.880Z,16.80
2019-03-29T13:24:45.671Z,18.70
2019-03-29T13:27:14.156Z,18.50
2019-03-29T13:29:42.615Z,19.60
2019-03-29T13:32:11.088Z,20.60
2019-03-29T13:34:39.538Z,17.30
2019-03-29T13:37:08.083Z,15.90
2019-03-29T13:39:36.899Z,18.30
2019-03-29T13:42:05.442Z,20.10
2019-03-29T13:44:33.891Z,20.80
2019-03-29T13:47:02.375Z,22.40
2019-03-29T13:49:31.239Z,22.60
2019-03-29T13:51:59.715Z,18.80
2019-03-29T13:54:28.172Z,19.70
2019-03-29T13:56:56.651Z,17.90
2019-03-29T13:59:25.179Z,18.20
2019-03-29T14:01:54.084Z,19.40
2019-03-29T14:04:22.615Z,17.80
2019-03-29T14:06:51.091Z,16.90
2019-03-29T14:09:19.864Z,18.40
2019-03-29T14:11:48.407Z,19.20
2019-03-29T14:14:17.236Z,19.50
2019-03-29T14:16:45.836Z,18.20
2019-03-29T14:19:14.383Z,16.90
2019-03-29T14:21:43.202Z,17.90
2019-03-29T14:24:11.658Z,16.90
2019-03-29T14:26:40.484Z,18.20
2019-03-29T14:29:09.036Z,17.10
2019-03-29T14:31:37.484Z,19.40
2019-03-29T14:34:05.963Z,19.40
2019-03-29T14:36:34.671Z,18.90
2019-03-29T14:39:03.148Z,17.50
2019-03-29T14:41:31.610Z,19.80
2019-03-29T14:44:00.103Z,20.50
2019-03-29T14:46:28.986Z,19.70
2019-03-29T14:48:57.529Z,20.20
2019-03-29T14:51:26.263Z,20.30
2019-03-29T14:53:55.047Z,19.70
2019-03-29T14:56:23.848Z,19.50
2019-03-29T14:58:52.382Z,18.80
2019-03-29T15:01:21.125Z,19.40
2019-03-29T15:03:49.602Z,17.10
2019-03-29T15:06:18.059Z,18.90
2019-03-29T15:08:49.635Z,18.10
2019-03-29T15:11:22.475Z,19.90
2019-03-29T15:13:47.235Z,20.80
2019-03-29T15:16:16.034Z,20.80
2019-03-29T15:18:44.502Z,20.20
2019-03-29T15:21:12.962Z,19.80
2019-03-29T15:23:41.514Z,20.40
2019-03-29T15:26:10.285Z,20.60
2019-03-29T15:28:39.078Z,20.00
2019-03-29T15:31:07.971Z,20.00
2019-03-29T15:33:36.450Z,20.30
2019-03-29T15:36:04.980Z,19.70
2019-03-29T15:38:33.449Z,19.70
2019-03-29T15:41:01.976Z,20.30
2019-03-29T15:43:30.812Z,20.10
2019-03-29T15:45:59.707Z,20.20
2019-03-29T15:48:28.497Z,20.40
2019-03-29T15:50:56.948Z,20.20
2019-03-29T15:53:25.434Z,20.40
2019-03-29T15:55:54.263Z,19.80
2019-03-29T15:58:22.748Z,19.10
2019-03-29T16:00:51.545Z,19.10
2019-03-29T16:03:20.337Z,19.10
2019-03-29T16:05:48.813Z,19.20
2019-03-29T16:08:17.611Z,19.30
2019-03-29T16:10:46.130Z,19.20
2019-03-29T16:13:14.996Z,18.90
2019-03-29T16:15:43.468Z,17.80
2019-03-29T16:18:12.288Z,18.90
2019-03-29T16:20:40.827Z,19.00
2019-03-29T16:23:09.652Z,19.20
2019-03-29T16:25:38.204Z,19.10
2019-03-29T16:28:07.039Z,19.00
2019-03-29T16:30:35.841Z,18.80
2019-03-29T16:33:04.722Z,16.90
2019-03-29T16:35:33.199Z,17.40
2019-03-29T16:38:01.719Z,17.40
2019-03-29T16:40:31.150Z,17.30
2019-03-29T16:43:00.098Z,16.60
2019-03-29T16:45:28.887Z,15.80
2019-03-29T16:47:57.689Z,14.90
2019-03-29T16:50:26.323Z,14.10
2019-03-29T16:52:55.163Z,13.60
2019-03-29T16:55:23.967Z,13.30
2019-03-29T16:57:52.423Z,13.00
2019-03-29T17:00:20.904Z,12.50
2019-03-29T17:03:04.616Z,12.10
2019-03-29T17:05:33.091Z,11.90
2019-03-29T17:08:04.973Z,11.70
2019-03-29T17:10:31.828Z,11.40
2019-03-29T17:13:00.612Z,11.30
2019-03-29T17:15:29.068Z,11.10
2019-03-29T17:17:57.839Z,10.80
2019-03-29T17:20:26.300Z,10.70
2019-03-29T17:22:55.108Z,10.60
2019-03-29T17:25:24.958Z,10.30
2019-03-29T17:27:53.724Z,10.10
2019-03-29T17:30:37.224Z,9.80
2019-03-29T17:33:06.149Z,9.80
2019-03-29T17:36:05.297Z,9.70
2019-03-29T17:38:33.834Z,9.70
2019-03-29T17:41:02.718Z,9.40
2019-03-29T17:43:31.508Z,9.20
2019-03-29T17:46:00.299Z,9.10
2019-03-29T17:48:29.096Z,8.90
2019-03-29T17:50:57.543Z,8.70
2019-03-29T17:53:26.015Z,8.60
2019-03-29T17:55:54.755Z,8.50
2019-03-29T17:58:23.653Z,8.40
2019-03-29T18:00:52.444Z,8.30
2019-03-29T18:03:20.982Z,8.10
2019-03-29T18:05:49.695Z,8.00
2019-03-29T18:08:18.272Z,7.80
2019-03-29T18:10:46.732Z,7.70
2019-03-29T18:13:15.492Z,7.60
2019-03-29T18:15:44.123Z,7.50
2019-03-29T18:18:13.207Z,7.40
2019-03-29T18:20:42.082Z,7.30
2019-03-29T18:23:10.559Z,7.20
2019-03-29T18:25:39.024Z,7.00
2019-03-29T18:28:07.509Z,6.90
2019-03-29T18:30:40.828Z,6.80
2019-03-29T18:33:09.447Z,6.80
2019-03-29T18:35:38.079Z,6.70
2019-03-29T18:38:06.563Z,6.60
2019-03-29T18:40:35.024Z,6.50
2019-03-29T18:43:03.563Z,6.40
2019-03-29T18:45:32.023Z,6.40
2019-03-29T18:48:00.501Z,6.40
2019-03-29T18:50:29.245Z,6.20
2019-03-29T18:52:57.789Z,6.10
2019-03-29T18:55:26.254Z,6.00
2019-03-29T18:57:54.728Z,5.90
2019-03-29T19:00:31.937Z,5.80
2019-03-29T19:03:20.104Z,5.80
2019-03-29T19:05:48.564Z,5.70
2019-03-29T19:08:17.384Z,5.60
2019-03-29T19:10:46.171Z,5.50
2019-03-29T19:13:16.403Z,5.50
2019-03-29T19:15:44.867Z,5.40
2019-03-29T19:18:13.351Z,5.40
2019-03-29T19:20:41.810Z,5.30
2019-03-29T19:23:10.351Z,5.30
2019-03-29T19:25:39.142Z,5.20
2019-03-29T19:28:07.679Z,5.10
2019-03-29T19:30:36.134Z,5.00
2019-03-29T19:33:05.101Z,5.00
2019-03-29T19:35:34.002Z,5.00
2019-03-29T19:38:02.476Z,5.00
2019-03-29T19:40:31.012Z,4.90
2019-03-29T19:42:59.763Z,4.80
2019-03-29T19:45:28.215Z,4.80
2019-03-29T19:47:56.688Z,4.70
2019-03-29T19:50:25.141Z,4.60
2019-03-29T19:52:53.705Z,4.60
2019-03-29T19:55:22.499Z,4.50
2019-03-29T19:57:50.994Z,4.50
2019-03-29T20:00:21.319Z,4.30
2019-03-29T20:02:49.842Z,4.30
2019-03-29T20:05:26.434Z,4.20
2019-03-29T20:07:56.091Z,4.20
2019-03-29T20:10:24.755Z,4.20
2019-03-29T20:13:08.309Z,4.20
2019-03-29T20:15:56.108Z,4.00
2019-03-29T20:18:24.587Z,4.00
2019-03-29T20:20:53.046Z,3.90
2019-03-29T20:23:21.591Z,3.90
2019-03-29T20:25:57.856Z,3.80
2019-03-29T20:28:26.339Z,3.70
2019-03-29T20:30:55.057Z,3.70
2019-03-29T20:33:23.603Z,3.70
2019-03-29T20:35:52.061Z,3.70
2019-03-29T20:38:20.897Z,3.70
2019-03-29T20:40:49.351Z,3.60
2019-03-29T20:43:18.176Z,3.40
2019-03-29T20:45:46.968Z,3.40
2019-03-29T20:48:15.440Z,3.40
2019-03-29T20:50:44.356Z,3.30
2019-03-29T20:53:12.897Z,3.30
2019-03-29T20:55:41.444Z,3.20
2019-03-29T20:58:10.319Z,3.20
2019-03-29T21:00:38.800Z,3.20
2019-03-29T21:03:07.257Z,3.20
2019-03-29T21:05:35.731Z,3.00
2019-03-29T21:08:19.450Z,2.90
2019-03-29T21:10:55.462Z,2.90
2019-03-29T21:13:18.387Z,2.90
2019-03-29T21:15:46.863Z,2.70
2019-03-29T21:18:17.468Z,2.70
2019-03-29T21:20:45.523Z,2.70
2019-03-29T21:23:13.979Z,2.70
2019-03-29T21:25:42.804Z,2.60
2019-03-29T21:28:11.263Z,2.50
2019-03-29T21:30:39.748Z,2.60
2019-03-29T21:33:08.563Z,2.40
2019-03-29T21:35:37.035Z,2.50
2019-03-29T21:38:05.502Z,2.50
2019-03-29T21:40:34.043Z,2.50
2019-03-29T21:43:02.591Z,2.50
2019-03-29T21:45:31.067Z,2.50
2019-03-29T21:48:09.977Z,2.50
2019-03-29T21:50:30.093Z,2.60
2019-03-29T21:52:58.911Z,2.60
2019-03-29T21:55:27.387Z,2.50
2019-03-29T21:57:56.287Z,2.40
2019-03-29T22:00:24.766Z,2.40
2019-03-29T22:02:53.672Z,2.50
2019-03-29T22:05:22.210Z,2.50
2019-03-29T22:07:50.952Z,2.50
2019-03-29T22:10:19.852Z,2.40
2019-03-29T22:12:48.739Z,2.30
2019-03-29T22:15:17.288Z,2.20
2019-03-29T22:17:45.742Z,2.20
2019-03-29T22:20:14.203Z,2.00
2019-03-29T22:22:42.688Z,2.00
2019-03-29T22:25:11.587Z,1.90
2019-03-29T22:27:40.484Z,1.80
2019-03-29T22:30:10.499Z,1.80
2019-03-29T22:32:39.283Z,1.80
2019-03-29T22:35:08.294Z,1.60
2019-03-29T22:37:36.908Z,1.50
2019-03-29T22:40:07.980Z,1.60
2019-03-29T22:42:36.817Z,1.60
2019-03-29T22:45:07.798Z,1.60
2019-03-29T22:47:36.659Z,1.60
2019-03-29T22:50:06.782Z,1.60
2019-03-29T22:52:35.322Z,1.50
2019-03-29T22:55:05.818Z,1.40
2019-03-29T22:57:34.357Z,1.40
2019-03-29T23:00:03.843Z,1.40
2019-03-29T23:02:32.680Z,1.40
2019-03-29T23:05:01.216Z,1.40
2019-03-29T23:07:29.763Z,1.40
2019-03-29T23:09:58.225Z,1.20
2019-03-29T23:12:26.709Z,1.20
2019-03-29T23:14:55.244Z,1.20
2019-03-29T23:17:24.011Z,1.20
2019-03-29T23:19:52.803Z,1.20
2019-03-29T23:22:21.279Z,1.10
2019-03-29T23:24:49.739Z,1.10
2019-03-29T23:27:18.211Z,1.10
2019-03-29T23:29:46.676Z,1.00
2019-03-29T23:32:15.156Z,0.90
2019-03-29T23:34:43.697Z,0.70
2019-03-29T23:37:12.248Z,0.60
2019-03-29T23:39:40.708Z,0.70
2019-03-29T23:42:09.479Z,0.80
2019-03-29T23:44:38.273Z,0.80
2019-03-29T23:47:07.059Z,0.80
2019-03-29T23:49:35.539Z,0.70
2019-03-29T23:52:03.991Z,0.80
2019-03-29T23:54:32.466Z,0.70
2019-03-29T23:57:01.216Z,0.80
2019-03-29T23:59:29.999Z,0.70
